Margaretsville, North Carolina
Current Conditions -  °F | °C
As of 1:55 PM on Tuesday 27 Jan 2015 (Local Time) from KEMV Reporting Station
Light Snow Light Snow  
Wind Chill: 26°   Ceiling: 2000
Heat Index: 32°   Visibility: 10mi
Dew Point: 30°   Wind: 6mph
Humidity: 93%   Direction: 290°WNW
Pressure: 29.81"   Gusts: NA
Location:  36.5285°N, 77.2853°W
Report Text: KEMV 271855Z AUTO 29005KT 10SM -SN OVC020 00/M01 A2981 RMK AO2 LTG DSNT NE
Loading
Personal Weather Stations






























Interactive Weather Map New forecast layout! Learn more

10-Day Weather Forecast

Advertisements
Track Severe Weather on mobile